Time;durP1;ratioP1;P1;durP2;ratioP2;P2;SDS_P1;SDS_P2;PMS_P1;PMS_P2;Temp;Humidity;BMP_temperature;BMP_pressure;BME280_temperature;BME280_humidity;BME280_pressure;Samples;Min_cycle;Max_cycle;Signal;HPM_P1;HPM_P2
2020/12/31 00:00:16;;;;;;;11.79;5.51;;;;;;;10.70;73.78;98768.91;358456;110;1961988;-74
2020/12/31 00:01:22;;;;;;;15.46;6.52;;;;;;;10.72;73.71;98772.20;341467;110;1963938;-74
2020/12/31 00:02:27;;;;;;;15.13;5.28;;;;;;;10.72;73.72;98768.69;359961;110;1963998;-73
2020/12/31 00:03:33;;;;;;;12.12;5.72;;;;;;;10.69;73.82;98763.72;361579;110;1961992;-74
2020/12/31 00:04:38;;;;;;;12.79;5.13;;;;;;;10.69;73.87;98766.41;358900;110;1961932;-74
2020/12/31 00:05:44;;;;;;;12.04;5.89;;;;;;;10.67;73.97;98769.36;360218;110;1962049;-73
2020/12/31 00:06:50;;;;;;;11.58;4.98;;;;;;;10.67;73.99;98771.25;359472;110;1960959;-73
2020/12/31 00:07:56;;;;;;;14.34;5.87;;;;;;;10.70;73.97;98762.68;358688;110;1961988;-74
2020/12/31 00:09:02;;;;;;;14.02;6.11;;;;;;;10.69;73.96;98761.86;351983;110;2964963;-74
2020/12/31 00:10:11;;;;;;;14.87;5.86;;;;;;;10.69;73.99;98766.41;292138;110;2281921;-73
2020/12/31 00:11:16;;;;;;;12.96;5.92;;;;;;;10.64;74.16;98753.63;360676;110;1961937;-74
2020/12/31 00:12:22;;;;;;;11.13;5.68;;;;;;;10.64;74.26;98756.32;358175;110;1962019;-74
2020/12/31 00:13:28;;;;;;;11.04;5.73;;;;;;;10.71;73.96;98756.22;351167;110;2889064;-74
2020/12/31 00:14:34;;;;;;;15.16;5.81;;;;;;;10.69;74.00;98761.86;329356;110;1964021;-75
2020/12/31 00:15:39;;;;;;;16.63;6.30;;;;;;;10.68;74.05;98759.37;353883;110;1961944;-72
2020/12/31 00:16:47;;;;;;;12.56;6.10;;;;;;;10.65;74.19;98759.84;358752;110;1963926;-73
2020/12/31 00:17:54;;;;;;;12.95;6.59;;;;;;;10.61;74.23;98762.19;359971;110;1961988;-73
2020/12/31 00:19:00;;;;;;;13.55;6.04;;;;;;;10.60;74.40;98762.40;360007;110;1963917;-73
2020/12/31 00:20:07;;;;;;;17.24;5.52;;;;;;;10.60;74.39;98762.40;360654;110;1962006;-73
2020/12/31 00:21:13;;;;;;;13.67;6.23;;;;;;;10.60;74.45;98752.41;361268;110;1962021;-73
2020/12/31 00:22:19;;;;;;;12.82;6.62;;;;;;;10.61;74.40;98764.89;351443;110;2878986;-73
2020/12/31 00:23:25;;;;;;;14.12;5.79;;;;;;;10.67;74.25;98774.77;357398;110;1962871;-74
2020/12/31 00:24:30;;;;;;;15.58;6.10;;;;;;;10.67;74.28;98758.56;358141;110;1963960;-73
2020/12/31 00:25:38;;;;;;;18.83;6.85;;;;;;;10.64;74.42;98774.37;359073;110;1963926;-74
2020/12/31 00:26:46;;;;;;;13.93;5.98;;;;;;;10.62;74.52;98771.92;358850;110;1960670;-74
2020/12/31 00:27:52;;;;;;;15.17;5.21;;;;;;;10.64;74.44;98775.23;361328;110;1962003;-73
2020/12/31 00:28:57;;;;;;;12.09;6.20;;;;;;;10.62;74.29;98755.72;346608;115;1961005;-73
2020/12/31 00:30:08;;;;;;;14.43;5.94;;;;;;;10.71;74.14;98767.02;358438;110;1964016;-72
2020/12/31 00:31:14;;;;;;;13.92;5.42;;;;;;;10.69;74.20;98763.72;360348;110;1963046;-73
2020/12/31 00:32:20;;;;;;;12.34;5.79;;;;;;;10.68;74.23;98764.78;336732;110;2374990;-74
2020/12/31 00:33:25;;;;;;;13.23;6.04;;;;;;;10.68;74.34;98772.88;324502;110;1963954;-73
2020/12/31 00:34:30;;;;;;;13.38;6.31;;;;;;;10.67;74.41;98758.56;321230;110;1985998;-73
2020/12/31 00:35:36;;;;;;;16.89;6.33;;;;;;;10.66;74.35;98764.17;334183;110;1961952;-73
2020/12/31 00:36:42;;;;;;;13.28;6.40;;;;;;;10.65;74.43;98770.64;360227;110;1961993;-73
2020/12/31 00:37:48;;;;;;;16.01;6.28;;;;;;;10.68;74.41;98765.59;359921;110;1961924;-73
2020/12/31 00:38:53;;;;;;;14.70;6.19;;;;;;;10.71;74.34;98762.44;358855;110;1964996;-73
2020/12/31 00:39:59;;;;;;;14.73;6.03;;;;;;;10.71;74.27;98764.31;361231;110;1961973;-73
2020/12/31 00:41:05;;;;;;;14.08;6.06;;;;;;;10.69;74.28;98769.97;361889;110;1962927;-72
2020/12/31 00:42:11;;;;;;;14.32;5.50;;;;;;;10.75;74.00;98763.64;315969;110;2752041;-71
2020/12/31 00:43:17;;;;;;;13.41;6.00;;;;;;;10.73;74.03;98765.73;354558;110;1962048;-72
2020/12/31 00:44:22;;;;;;;17.33;6.78;;;;;;;10.73;74.11;98765.73;358528;110;1961958;-72
2020/12/31 00:45:28;;;;;;;10.38;5.87;;;;;;;10.72;74.07;98764.10;360565;110;1962024;-72
2020/12/31 00:46:36;;;;;;;14.21;6.47;;;;;;;10.66;74.32;98767.70;360974;110;1962012;-71
2020/12/31 00:47:42;;;;;;;13.53;5.88;;;;;;;10.69;74.22;98769.12;342285;108;2368785;-72
2020/12/31 00:48:48;;;;;;;12.20;5.78;;;;;;;10.68;74.28;98767.48;366881;108;1961926;-73
2020/12/31 00:49:53;;;;;;;14.02;6.35;;;;;;;10.70;74.22;98763.50;366383;108;1963010;-72
2020/12/31 00:50:59;;;;;;;15.70;6.92;;;;;;;10.73;74.08;98764.92;367299;108;1962955;-73
2020/12/31 00:52:04;;;;;;;13.89;5.47;;;;;;;10.73;73.96;98767.63;366568;108;1961952;-74
2020/12/31 00:53:10;;;;;;;15.53;6.54;;;;;;;10.75;73.84;98765.52;362976;110;1961789;-73
2020/12/31 00:54:15;;;;;;;13.28;5.64;;;;;;;10.74;73.85;98774.66;362571;111;1962008;-72
2020/12/31 00:55:20;;;;;;;17.69;6.21;;;;;;;10.69;74.08;98772.67;365789;108;1964982;-73
2020/12/31 00:56:28;;;;;;;14.00;6.58;;;;;;;10.68;74.13;98771.00;343342;108;1962023;-73
2020/12/31 00:57:33;;;;;;;13.62;5.78;;;;;;;10.71;74.03;98761.62;354796;108;1961946;-74
2020/12/31 00:58:39;;;;;;;12.86;6.14;;;;;;;10.67;74.17;98777.47;360159;108;1961995;-74
2020/12/31 00:59:44;;;;;;;14.69;6.49;;;;;;;10.66;74.27;98770.40;367119;108;1963999;-73
2020/12/31 01:00:50;;;;;;;13.77;6.39;;;;;;;10.66;74.30;98765.00;366305;108;1964017;-75
2020/12/31 01:01:55;;;;;;;12.92;6.21;;;;;;;10.73;73.93;98770.32;360227;108;1962002;-73
2020/12/31 01:03:04;;;;;;;17.46;6.84;;;;;;;10.69;74.04;98772.67;367400;108;1961951;-72
2020/12/31 01:04:10;;;;;;;13.65;6.71;;;;;;;10.68;73.96;98776.41;369000;108;1962031;-74
2020/12/31 01:05:17;;;;;;;15.84;6.01;;;;;;;10.65;74.16;98767.94;366325;108;1961943;-73
2020/12/31 01:06:24;;;;;;;13.39;5.82;;;;;;;10.65;74.12;98776.86;307977;108;2169862;-72
2020/12/31 01:07:29;;;;;;;15.84;6.93;;;;;;;10.67;73.99;98771.25;330665;108;1961945;-74
2020/12/31 01:08:34;;;;;;;15.55;6.06;;;;;;;10.65;74.06;98768.77;347128;108;1962023;-73
2020/12/31 01:09:40;;;;;;;11.67;5.66;;;;;;;10.67;74.04;98766.66;358689;108;1962073;-73
2020/12/31 01:10:47;;;;;;;13.38;6.46;;;;;;;10.68;73.88;98773.70;365265;108;1962007;-74
2020/12/31 01:11:55;;;;;;;12.07;5.89;;;;;;;10.66;73.81;98774.98;366990;108;1962016;-73
2020/12/31 01:13:01;;;;;;;14.61;6.12;;;;;;;10.66;73.89;98777.68;365286;108;1961949;-72
2020/12/31 01:14:07;;;;;;;13.08;5.56;;;;;;;10.60;73.98;98768.63;367371;108;1961999;-73
2020/12/31 01:15:12;;;;;;;14.86;5.93;;;;;;;10.62;74.00;98771.10;365419;108;1961952;-73
2020/12/31 01:16:19;;;;;;;13.66;6.23;;;;;;;10.63;73.88;98775.44;353518;112;1960773;-73
2020/12/31 01:17:26;;;;;;;12.53;5.84;;;;;;;10.61;73.94;98772.98;319874;108;2820095;-73
2020/12/31 01:18:45;;;;;;;12.56;6.01;;;;;;;10.60;74.05;98771.32;365092;108;1962899;-73
2020/12/31 01:19:51;;;;;;;12.32;5.85;;;;;;;10.62;73.88;98765.70;338031;109;2399059;-72
2020/12/31 01:20:56;;;;;;;18.62;6.28;;;;;;;10.61;73.94;98777.54;364541;108;1961955;-73
2020/12/31 01:22:02;;;;;;;14.85;5.79;;;;;;;10.60;73.87;98770.50;365046;108;1961994;-73
2020/12/31 01:23:07;;;;;;;16.96;6.75;;;;;;;10.62;73.91;98765.70;364208;108;1961963;-73
2020/12/31 01:24:13;;;;;;;16.31;6.95;;;;;;;10.62;73.75;98771.92;361528;110;1961001;-73
2020/12/31 01:25:19;;;;;;;12.52;6.45;;;;;;;10.61;73.82;98764.03;362923;108;1962031;-73
2020/12/31 01:26:32;;;;;;;13.46;6.34;;;;;;;10.58;74.00;98769.90;364894;108;1961997;-72
2020/12/31 01:27:38;;;;;;;15.62;6.37;;;;;;;10.56;74.15;98768.27;361075;110;1962013;-73
2020/12/31 01:28:44;;;;;;;11.72;6.29;;;;;;;10.57;74.06;98766.37;362824;108;1961954;-73
2020/12/31 01:29:50;;;;;;;11.72;6.52;;;;;;;10.56;74.17;98770.96;364746;108;1961931;-73
2020/12/31 01:30:57;;;;;;;12.13;5.76;;;;;;;10.58;74.09;98768.02;326870;108;2666989;-73
2020/12/31 01:32:03;;;;;;;13.70;6.35;;;;;;;10.67;73.79;98765.84;366301;108;1962058;-73
2020/12/31 01:33:08;;;;;;;14.08;5.91;;;;;;;10.61;73.83;98766.73;362089;108;1964049;-73
2020/12/31 01:34:13;;;;;;;15.41;5.94;;;;;;;10.67;73.58;98774.77;362831;110;1962963;-73
2020/12/31 01:35:19;;;;;;;14.61;5.93;;;;;;;10.63;73.68;98764.64;368277;108;1961999;-73
2020/12/31 01:36:25;;;;;;;11.68;6.07;;;;;;;10.64;73.64;98769.83;361936;108;1960880;-73
2020/12/31 01:37:30;;;;;;;13.22;5.97;;;;;;;10.62;73.81;98769.22;363615;110;1961972;-73
2020/12/31 01:38:36;;;;;;;13.82;6.09;;;;;;;10.62;73.87;98771.92;362282;108;1961876;-73
2020/12/31 01:39:42;;;;;;;13.33;5.88;;;;;;;10.60;74.01;98763.22;364916;109;1960997;-71
2020/12/31 01:40:52;;;;;;;12.82;6.54;;;;;;;10.62;73.90;98774.63;360780;108;1963019;-72
2020/12/31 01:42:06;;;;;;;15.03;5.98;;;;;;;10.62;73.80;98758.42;364062;108;1963943;-72
2020/12/31 01:43:11;;;;;;;11.42;5.74;;;;;;;10.64;73.77;98769.83;364095;109;1962815;-73
2020/12/31 01:44:18;;;;;;;14.95;6.32;;;;;;;10.66;73.63;98770.40;360211;108;1961939;-72
2020/12/31 01:45:23;;;;;;;14.06;6.64;;;;;;;10.61;73.82;98764.03;328493;109;2583003;-73
2020/12/31 01:46:33;;;;;;;16.78;6.74;;;;;;;10.59;73.79;98769.69;353820;113;1961936;-72
2020/12/31 01:47:41;;;;;;;12.59;5.50;;;;;;;10.60;73.85;98762.40;315542;109;2838925;-73
2020/12/31 01:48:46;;;;;;;14.49;6.49;;;;;;;10.59;73.76;98760.77;364323;108;1963966;-74
2020/12/31 01:49:52;;;;;;;12.34;5.47;;;;;;;10.57;73.79;98760.98;362704;110;1962019;-71
2020/12/31 01:50:58;;;;;;;13.18;6.47;;;;;;;10.61;73.68;98758.63;360751;109;1961970;-73
2020/12/31 01:52:06;;;;;;;12.37;6.89;;;;;;;10.63;73.52;98767.34;312982;113;2720990;-73
2020/12/31 01:53:11;;;;;;;13.82;6.54;;;;;;;10.61;73.41;98759.48;364229;109;1960798;-73
2020/12/31 01:54:20;;;;;;;16.96;6.93;;;;;;;10.61;73.38;98758.63;360635;108;1961972;-75
2020/12/31 01:55:25;;;;;;;15.90;6.06;;;;;;;10.61;73.43;98764.89;364488;108;1962100;-72
2020/12/31 01:56:33;;;;;;;14.02;5.84;;;;;;;10.55;73.72;98769.30;360438;108;1962026;-73
2020/12/31 01:57:39;;;;;;;12.32;5.78;;;;;;;10.55;73.71;98766.59;363713;109;1962011;-73
2020/12/31 01:58:46;;;;;;;11.27;6.03;;;;;;;10.58;73.68;98756.39;300346;108;2230021;-74
2020/12/31 01:59:51;;;;;;;13.14;6.20;;;;;;;10.59;73.69;98756.18;361770;109;1963053;-72
2020/12/31 02:00:57;;;;;;;11.36;6.04;;;;;;;10.58;73.68;98759.91;362825;109;1964950;-72
2020/12/31 02:02:02;;;;;;;13.80;6.69;;;;;;;10.04;73.63;98669.86;364904;108;1963944;-72
2020/12/31 02:03:07;;;;;;;12.71;6.43;;;;;;;10.54;73.82;98756.04;362341;108;1963004;-73
2020/12/31 02:04:13;;;;;;;12.56;5.73;;;;;;;10.53;73.92;98757.07;360379;109;1961972;-73
2020/12/31 02:05:20;;;;;;;13.55;6.04;;;;;;;10.55;74.06;98758.49;364408;109;1963021;-73
2020/12/31 02:06:28;;;;;;;13.81;6.47;;;;;;;10.52;74.35;98755.44;331469;107;2558626;31
2020/12/31 02:07:35;;;;;;;11.36;5.55;;;;;;;10.51;74.20;98757.31;365959;108;1962036;-73
2020/12/31 02:08:45;;;;;;;11.84;6.21;;;;;;;10.55;74.17;98754.97;324391;111;2579015;-73
2020/12/31 02:09:51;;;;;;;13.12;5.58;;;;;;;10.54;74.31;98756.04;322893;111;2561923;-74
2020/12/31 02:10:57;;;;;;;13.00;6.09;;;;;;;10.53;74.33;98747.12;340309;110;1962000;-74
2020/12/31 02:12:05;;;;;;;13.44;6.74;;;;;;;10.53;74.41;98747.12;344028;110;1962051;-72
2020/12/31 02:13:11;;;;;;;10.94;6.04;;;;;;;10.55;74.39;98758.49;351883;110;2907971;-74
2020/12/31 02:14:17;;;;;;;12.57;6.26;;;;;;;10.50;74.56;98755.65;335939;112;1963035;-74
2020/12/31 02:15:24;;;;;;;13.09;6.09;;;;;;;10.49;74.69;98745.91;359894;110;1961967;-73
2020/12/31 02:16:38;;;;;;;11.85;5.73;;;;;;;10.53;74.53;98748.97;358941;110;1960949;-74
2020/12/31 02:17:44;;;;;;;12.08;5.86;;;;;;;10.49;74.68;98750.49;351899;114;1961928;-74
2020/12/31 02:18:58;;;;;;;13.41;6.44;;;;;;;10.47;74.81;98752.59;361089;110;1962014;-73
2020/12/31 02:20:03;;;;;;;11.87;5.83;;;;;;;10.47;74.89;98749.89;360431;111;1962974;-72
2020/12/31 02:21:08;;;;;;;12.20;6.13;;;;;;;10.47;75.02;98745.31;360081;111;1962994;-72
2020/12/31 02:22:15;;;;;;;13.09;5.99;;;;;;;10.44;74.89;98731.45;359966;110;1960952;-73
2020/12/31 02:23:20;;;;;;;12.74;5.66;;;;;;;10.48;74.95;98746.98;361610;111;1961888;-73
2020/12/31 02:24:25;;;;;;;13.64;5.91;;;;;;;10.52;74.75;98750.03;360007;111;1961009;-73
2020/12/31 02:25:31;;;;;;;11.84;5.48;;;;;;;10.49;74.85;98753.20;358959;110;1962981;-73
2020/12/31 02:26:38;;;;;;;14.10;5.92;;;;;;;10.47;75.01;98747.19;360792;110;1961854;-74
2020/12/31 02:27:44;;;;;;;13.81;5.82;;;;;;;10.44;75.17;98747.66;359656;111;1962031;-74
2020/12/31 02:28:50;;;;;;;12.56;6.17;;;;;;;10.47;75.10;98739.09;360721;111;1961885;-74
2020/12/31 02:29:56;;;;;;;12.85;6.23;;;;;;;10.48;75.18;98746.16;360736;110;1960910;-73
2020/12/31 02:31:06;;;;;;;11.02;5.26;;;;;;;10.48;75.01;98746.98;360005;110;1962046;-74
2020/12/31 02:32:11;;;;;;;11.22;5.19;;;;;;;10.46;75.09;98743.67;357503;110;1962967;-74
2020/12/31 02:33:18;;;;;;;9.82;5.39;;;;;;;10.49;75.06;98737.00;360689;110;1961978;-72
2020/12/31 02:34:24;;;;;;;12.37;6.54;;;;;;;10.49;75.02;98739.69;360689;110;1962946;-73
2020/12/31 02:35:30;;;;;;;12.58;5.97;;;;;;;10.50;74.96;98742.15;346857;110;1963962;-73
2020/12/31 02:36:39;;;;;;;13.67;5.71;;;;;;;10.48;75.09;98738.06;359691;111;1962021;-73
2020/12/31 02:37:44;;;;;;;11.28;5.34;;;;;;;10.48;75.18;98741.58;335439;111;1961919;-73
2020/12/31 02:38:50;;;;;;;9.11;4.69;;;;;;;10.49;75.15;98740.52;333217;112;1962047;-73
2020/12/31 02:39:55;;;;;;;11.04;5.00;;;;;;;10.48;75.22;98741.58;354873;112;1962082;-72
2020/12/31 02:41:01;;;;;;;11.99;5.49;;;;;;;10.49;75.28;98739.69;361149;110;1962003;-72
2020/12/31 02:42:06;;;;;;;13.72;6.17;;;;;;;10.51;75.30;98737.59;359447;110;1960999;-73
2020/12/31 02:43:12;;;;;;;11.47;5.58;;;;;;;10.54;75.09;98737.14;361001;110;1961949;-71
2020/12/31 02:44:17;;;;;;;15.29;6.71;;;;;;;10.54;75.05;98737.14;360086;110;1962010;-73
2020/12/31 02:45:22;;;;;;;14.16;5.76;;;;;;;10.51;75.24;98746.52;359327;110;1961974;-73
2020/12/31 02:46:29;;;;;;;11.37;6.14;;;;;;;10.56;75.12;98740.44;360169;111;1963020;-73
2020/12/31 02:47:39;;;;;;;10.65;5.36;;;;;;;10.53;75.18;98739.02;328708;112;2532990;-73
2020/12/31 02:48:47;;;;;;;11.22;5.93;;;;;;;10.56;75.08;98743.14;338472;111;2361917;-73
2020/12/31 02:49:52;;;;;;;12.58;5.44;;;;;;;10.54;75.11;98737.14;360657;111;1961957;-72
2020/12/31 02:50:58;;;;;;;11.29;5.70;;;;;;;10.53;75.09;98739.02;351940;113;1961925;-73
2020/12/31 02:52:03;;;;;;;10.32;5.04;;;;;;;10.53;75.09;98746.27;353018;113;1962010;-71
2020/12/31 02:53:09;;;;;;;11.04;5.26;;;;;;;10.54;75.02;98739.84;360573;110;1961988;-72
2020/12/31 02:54:15;;;;;;;12.09;5.53;;;;;;;10.47;75.33;98742.61;360598;111;1962922;-73
2020/12/31 02:55:21;;;;;;;10.08;5.23;;;;;;;10.48;75.40;98732.66;351217;110;2894002;-74
2020/12/31 02:56:28;;;;;;;10.83;5.89;;;;;;;10.54;75.09;98735.25;358700;110;1961989;-73
2020/12/31 02:57:34;;;;;;;11.27;5.42;;;;;;;10.50;75.19;98730.53;360548;110;1961930;-73
2020/12/31 02:58:40;;;;;;;10.29;5.15;;;;;;;10.47;75.35;98728.30;358720;110;1963969;-74
2020/12/31 02:59:46;;;;;;;12.33;5.96;;;;;;;10.44;75.46;98731.45;361352;111;1961922;-73
2020/12/31 03:00:52;;;;;;;10.68;5.73;;;;;;;10.38;75.84;98721.58;309153;114;2686917;-72
2020/12/31 03:01:57;;;;;;;13.08;5.51;;;;;;;10.41;75.57;98721.93;339543;112;1961966;-73
2020/12/31 03:03:03;;;;;;;9.48;5.67;;;;;;;10.39;75.77;98715.92;360359;110;1961954;-73
2020/12/31 03:04:08;;;;;;;11.73;4.92;;;;;;;10.38;75.72;98718.88;360464;110;1961990;-73
2020/12/31 03:05:14;;;;;;;8.65;4.66;;;;;;;10.37;75.75;98719.91;360078;111;1962976;-73
2020/12/31 03:06:21;;;;;;;11.73;5.51;;;;;;;10.32;75.93;98712.52;360009;110;1960868;-73
2020/12/31 03:07:28;;;;;;;8.58;4.39;;;;;;;10.34;75.83;98716.61;352308;111;2941020;-73
2020/12/31 03:08:35;;;;;;;11.63;4.98;;;;;;;10.37;75.78;98714.51;334214;112;1962878;-73
2020/12/31 03:09:40;;;;;;;8.88;4.98;;;;;;;10.37;75.63;98712.63;352972;113;1961981;-73
2020/12/31 03:10:50;;;;;;;10.88;4.99;;;;;;;10.36;75.57;98708.29;333424;113;1960756;-72
2020/12/31 03:11:56;;;;;;;8.66;3.99;;;;;;;10.32;75.72;98721.43;361234;112;1961984;-72
2020/12/31 03:13:01;;;;;;;10.36;5.31;;;;;;;10.31;76.00;98717.06;358004;110;1960907;-72
2020/12/31 03:14:07;;;;;;;12.03;5.21;;;;;;;10.34;75.89;98715.78;360756;112;1960984;-72
2020/12/31 03:15:15;;;;;;;12.15;5.22;;;;;;;10.35;75.97;98709.36;361317;111;1960850;-75
2020/12/31 03:16:22;;;;;;;12.09;5.58;;;;;;;10.31;75.96;98706.27;360716;110;1961862;-72
2020/12/31 03:17:28;;;;;;;9.60;4.83;;;;;;;10.26;76.23;98716.89;363920;105;2936862;-74
2020/12/31 03:18:34;;;;;;;11.83;5.55;;;;;;;10.25;76.24;98701.75;339800;106;1961921;-73
2020/12/31 03:19:40;;;;;;;11.91;5.58;;;;;;;10.28;76.22;98705.91;372967;106;1961007;-73
2020/12/31 03:20:51;;;;;;;11.67;5.59;;;;;;;10.25;76.35;98707.16;372681;108;1960998;-73
2020/12/31 03:21:57;;;;;;;10.35;5.39;;;;;;;10.23;76.57;98703.85;372703;108;1960914;-74
2020/12/31 03:23:02;;;;;;;10.77;5.51;;;;;;;10.21;76.64;98707.83;367037;109;1962979;-73
2020/12/31 03:24:08;;;;;;;13.51;6.27;;;;;;;10.21;76.56;98708.64;367020;108;1961044;-74
2020/12/31 03:25:14;;;;;;;11.06;5.89;;;;;;;10.24;76.36;98704.67;321340;108;2873858;-74
2020/12/31 03:26:21;;;;;;;10.38;5.43;;;;;;;10.17;76.67;98701.25;365730;106;1961937;-74
2020/12/31 03:27:26;;;;;;;11.89;5.91;;;;;;;10.20;76.57;98698.09;369547;108;1960958;-73
2020/12/31 03:28:32;;;;;;;11.62;6.02;;;;;;;10.15;76.72;98704.17;372858;106;1961916;-74
2020/12/31 03:29:37;;;;;;;10.35;5.34;;;;;;;10.19;76.55;98699.13;372614;106;1962069;-74
2020/12/31 03:30:45;;;;;;;13.94;6.81;;;;;;;10.17;76.63;98704.77;328845;108;2726016;-74
2020/12/31 03:31:52;;;;;;;10.95;5.51;;;;;;;10.15;76.86;98703.34;374270;106;1962979;-74
2020/12/31 03:32:57;;;;;;;10.25;5.52;;;;;;;10.13;76.95;98708.95;371951;106;1961999;-74
2020/12/31 03:34:02;;;;;;;12.58;6.78;;;;;;;10.15;77.00;98696.07;371591;108;1962972;-74
2020/12/31 03:35:09;;;;;;;11.68;5.62;;;;;;;10.17;76.92;98703.95;372496;106;1960926;-73
2020/12/31 03:36:15;;;;;;;11.39;5.76;;;;;;;10.18;76.43;98700.19;332970;112;2361794;-74
2020/12/31 03:37:26;;;;;;;10.14;5.38;;;;;;;10.19;76.44;98704.53;343532;108;1961890;-74
2020/12/31 03:38:31;;;;;;;13.66;5.64;;;;;;;10.21;76.25;98695.16;358559;108;1962892;-75
2020/12/31 03:39:37;;;;;;;12.11;6.13;;;;;;;10.21;76.20;98702.43;372077;108;1961928;-73
2020/12/31 03:40:45;;;;;;;12.65;6.23;;;;;;;10.19;76.26;98694.58;371517;106;1962932;-73
2020/12/31 03:41:51;;;;;;;13.41;6.02;;;;;;;10.22;76.05;98698.70;321989;108;2832930;-75
2020/12/31 03:42:56;;;;;;;11.78;5.36;;;;;;;10.20;75.97;98696.22;329799;108;2004986;-75
2020/12/31 03:44:02;;;;;;;12.78;5.12;;;;;;;10.17;75.97;98709.34;372052;106;1962951;-74
2020/12/31 03:45:07;;;;;;;12.81;5.51;;;;;;;10.19;75.77;98699.13;372558;106;1962088;-74
2020/12/31 03:46:13;;;;;;;12.51;5.57;;;;;;;10.11;76.06;98705.69;371807;108;1961893;-74
2020/12/31 03:47:18;;;;;;;13.50;7.02;;;;;;;10.08;76.01;98700.72;373341;106;1962025;-73
2020/12/31 03:48:23;;;;;;;12.70;5.88;;;;;;;10.10;75.94;98695.92;372610;106;1962018;-74
2020/12/31 03:49:29;;;;;;;12.55;5.77;;;;;;;10.07;76.07;98697.20;370506;108;1961990;-74
2020/12/31 03:50:38;;;;;;;12.28;5.71;;;;;;;10.06;76.28;98702.84;320910;108;2855969;-74
2020/12/31 03:51:44;;;;;;;14.86;6.31;;;;;;;10.05;76.40;98701.17;370777;108;1961974;-72
2020/12/31 03:52:50;;;;;;;13.72;6.36;;;;;;;10.09;76.19;98705.90;372239;108;1961981;-72
2020/12/31 03:53:55;;;;;;;13.33;6.19;;;;;;;10.12;76.01;98700.05;373484;108;1961959;-72
2020/12/31 03:55:01;;;;;;;10.98;5.05;;;;;;;10.15;76.01;98703.34;371221;108;1961978;-73
2020/12/31 03:56:07;;;;;;;10.89;6.19;;;;;;;10.12;76.07;98702.74;319970;113;2584036;-74
2020/12/31 03:57:13;;;;;;;14.31;6.21;;;;;;;10.16;75.98;98702.28;348227;108;1963889;-71
2020/12/31 03:58:18;;;;;;;10.81;5.85;;;;;;;10.15;75.96;98696.07;372861;108;1961823;-73
2020/12/31 03:59:24;;;;;;;10.61;5.91;;;;;;;10.14;76.04;98699.83;372256;106;1963927;-73
2020/12/31 04:00:31;;;;;;;13.94;6.31;;;;;;;10.12;75.96;98700.05;370877;106;1963948;-73
2020/12/31 04:01:38;;;;;;;10.59;6.27;;;;;;;10.16;75.86;98697.73;339113;106;1965030;-72
2020/12/31 04:02:44;;;;;;;13.94;6.11;;;;;;;10.15;75.95;98695.25;368617;106;1964042;-72
2020/12/31 04:03:49;;;;;;;12.86;6.19;;;;;;;10.16;75.61;98692.34;372290;108;1962907;-72
2020/12/31 04:04:55;;;;;;;11.46;5.54;;;;;;;10.17;75.65;98682.36;369857;108;1962001;-73
2020/12/31 04:06:00;;;;;;;13.44;7.02;;;;;;;10.12;75.77;98688.43;368144;108;1961915;-72
2020/12/31 04:07:06;;;;;;;10.91;5.61;;;;;;;10.13;75.82;98682.83;371500;108;1961949;-72
2020/12/31 04:08:11;;;;;;;13.46;6.16;;;;;;;10.15;75.65;98682.58;370446;106;1963967;-74
2020/12/31 04:09:16;;;;;;;12.48;6.91;;;;;;;10.17;75.40;98688.58;372759;106;1961939;-74
2020/12/31 04:10:24;;;;;;;11.80;5.93;;;;;;;10.12;75.61;98686.55;320367;106;2095992;-73
2020/12/31 04:11:29;;;;;;;11.53;5.61;;;;;;;10.12;75.39;98696.53;349021;108;1962001;-74
2020/12/31 04:12:34;;;;;;;12.74;5.89;;;;;;;10.09;75.47;98692.41;361762;108;1961008;-74
2020/12/31 04:13:40;;;;;;;10.79;5.67;;;;;;;10.10;75.35;98695.92;371306;106;1962836;-74
2020/12/31 04:14:46;;;;;;;11.13;5.52;;;;;;;10.11;75.14;98702.98;373251;108;1961939;-74
2020/12/31 04:15:51;;;;;;;13.84;6.58;;;;;;;10.10;75.10;98698.63;372408;106;1962016;-72
2020/12/31 04:16:56;;;;;;;12.45;5.51;;;;;;;10.13;75.06;98704.41;372565;108;1962968;-72
2020/12/31 04:18:02;;;;;;;13.69;6.39;;;;;;;10.13;74.88;98690.06;374556;108;1961914;-74
2020/12/31 04:19:07;;;;;;;12.94;6.41;;;;;;;10.14;74.71;98694.44;372923;108;1962998;-74
2020/12/31 04:20:14;;;;;;;11.84;6.02;;;;;;;10.08;74.96;98695.31;372819;106;1962940;-73
2020/12/31 04:21:21;;;;;;;11.88;5.72;;;;;;;10.14;74.83;98697.13;363684;106;2883919;-75
2020/12/31 04:22:28;;;;;;;14.43;6.79;;;;;;;10.15;74.78;98700.65;372372;108;1961941;-73
2020/12/31 04:23:34;;;;;;;12.94;7.14;;;;;;;10.15;74.75;98716.84;369982;108;1963993;-73
2020/12/31 04:24:40;;;;;;;13.37;6.50;;;;;;;10.10;74.97;98725.61;327469;108;2770839;-75
2020/12/31 04:25:48;;;;;;;12.31;6.26;;;;;;;10.09;74.99;98721.27;373690;106;1961003;-76
2020/12/31 04:26:55;;;;;;;15.09;7.25;;;;;;;10.18;74.75;98724.48;320051;107;2891996;-73
2020/12/31 04:28:01;;;;;;;11.77;6.59;;;;;;;10.13;74.78;98722.45;338807;108;1962032;-74
2020/12/31 04:29:08;;;;;;;13.09;6.83;;;;;;;10.13;74.82;98707.11;372326;106;1960821;-74
2020/12/31 04:30:18;;;;;;;13.04;6.09;;;;;;;10.12;74.83;98697.34;370474;108;1964052;-74
2020/12/31 04:31:23;;;;;;;13.08;5.90;;;;;;;10.14;74.67;98705.23;373756;108;1961928;-74
2020/12/31 04:32:29;;;;;;;13.82;6.75;;;;;;;10.11;74.72;98692.19;368998;108;1960820;-73
2020/12/31 04:33:34;;;;;;;15.53;6.98;;;;;;;10.11;74.79;98711.90;371151;106;1961965;-74
2020/12/31 04:34:40;;;;;;;12.08;6.67;;;;;;;10.11;74.85;98721.88;370548;108;1961941;-73
2020/12/31 04:35:46;;;;;;;13.54;6.80;;;;;;;10.12;74.59;98729.73;359432;109;2892883;-75
2020/12/31 04:36:52;;;;;;;11.66;6.28;;;;;;;10.15;74.49;98724.94;353081;112;1966918;-73
2020/12/31 04:37:58;;;;;;;11.58;6.53;;;;;;;10.15;74.53;98725.75;373543;106;1961010;-73
2020/12/31 04:39:05;;;;;;;13.07;7.12;;;;;;;10.18;74.16;98730.70;371217;108;1960976;-74
2020/12/31 04:40:11;;;;;;;12.19;7.07;;;;;;;10.13;74.39;98722.45;372613;106;1962032;-73
2020/12/31 04:41:17;;;;;;;15.59;7.47;;;;;;;10.09;74.57;98722.09;332467;108;2650937;-74
2020/12/31 04:42:36;;;;;;;12.86;7.39;;;;;;;10.12;74.44;98723.52;373132;108;1961927;-74
2020/12/31 04:43:43;;;;;;;14.23;7.31;;;;;;;10.12;74.42;98726.21;336745;106;1963996;-73
2020/12/31 04:44:50;;;;;;;17.02;9.40;;;;;;;10.10;74.32;98731.82;371662;106;1962976;-73
2020/12/31 04:45:56;;;;;;;15.03;7.34;;;;;;;10.11;74.42;98721.88;372251;108;1962051;-73
2020/12/31 04:47:03;;;;;;;12.44;7.07;;;;;;;10.08;74.56;98722.30;372153;106;1961960;-73
2020/12/31 04:48:27;;;;;;;15.87;7.78;;;;;;;10.09;74.60;98724.79;370030;106;1961949;-73
2020/12/31 04:49:44;;;;;;;14.57;7.93;;;;;;;10.10;74.42;98721.03;340414;106;1961914;-76
2020/12/31 04:50:50;;;;;;;16.64;8.42;;;;;;;10.04;74.70;98726.52;370729;106;1961743;-74
2020/12/31 04:51:56;;;;;;;17.94;10.00;;;;;;;10.07;74.60;98734.16;372028;108;1960985;-74
2020/12/31 04:53:10;;;;;;;16.23;9.26;;;;;;;10.11;74.50;98738.06;371961;108;1961878;-73
2020/12/31 04:54:26;;;;;;;16.11;8.63;;;;;;;10.09;74.49;98740.16;372029;108;1961985;-74
2020/12/31 04:55:34;;;;;;;15.08;9.21;;;;;;;10.10;74.46;98733.70;359874;110;1963036;-73
2020/12/31 04:56:41;;;;;;;14.85;8.59;;;;;;;10.08;74.54;98738.49;360344;111;1961921;-73
2020/12/31 04:57:47;;;;;;;15.01;8.52;;;;;;;10.09;74.63;98738.28;357670;110;1961856;-73
2020/12/31 04:58:54;;;;;;;14.04;8.06;;;;;;;10.12;74.43;98743.22;349384;110;2876954;-74
2020/12/31 04:59:59;;;;;;;16.77;8.56;;;;;;;10.11;74.43;98738.89;347553;112;1962024;-74
2020/12/31 05:01:07;;;;;;;17.93;8.53;;;;;;;10.13;74.46;98741.34;359651;113;1963952;-74
2020/12/31 05:02:13;;;;;;;17.37;8.01;;;;;;;10.14;74.39;98740.31;357095;112;1960953;-73